Patcona II — WDC2170 — position and weather

sailwx.info

Track history (hours):
 
Tides and Currents Weather Stations Pressure Air Temp Water Temp Dewpoint Dewpoint Depression Visibility Wind Speed Wind Dir Waves Ship Positions

Patcona II

Owner: Connolly-Pacific Co, long beach, CA. More information available from US FCC via Universal Licensing System and Coast Guard Vessel Documentation Center.

Last reported at 2014-Oct-01 21:33 UTC. Time now 2014-Oct-01 22:24 UTC.
Position N 33°46' W 118°13'.

; draft 9 m.

Type: Towing. MMSI: 366988960.

Date/timePositionNaut miles runAvg speedWind from/ knotsBaromVisibWave heightAir tempDewpointWater temp
2014-Oct-01 21:33N 33°46' W 118°13'1210363031.1
2014-Oct-01 21:33N 29°41' W 095°00'12101214.5
2014-Oct-01 20:33N 33°46' W 118°13'1210335104.3
2014-Oct-01 20:33N 29°41' W 095°00'0 0.3
2014-Oct-01 19:33N 29°41' W 094°60'5 5.5
2014-Oct-01 18:33N 29°45' W 095°04'2 2.3
2014-Oct-01 17:32N 29°46' W 095°06'12031201.4
2014-Oct-01 16:32N 33°46' W 118°13'120324896.1
2014-Oct-01 16:29N 29°47' W 095°06'0 0.0
2014-Oct-01 15:30N 29°47' W 095°06'12031271.5
2014-Oct-01 14:33N 33°46' W 118°13'1203127409.2
2014-Oct-01 14:33N 29°47' W 095°06'0 0.0
2014-Oct-01 13:33N 29°47' W 095°06'12039316.0
2014-Oct-01 13:26N 33°46' W 118°13'12021372.5
2014-Oct-01 12:33N 29°44' W 095°08'120234085.2
2014-Oct-01 12:31N 33°46' W 118°13'0 0.0
2014-Oct-01 11:33N 33°46' W 118°13'1199359636.4
2014-Oct-01 11:32N 29°44' W 095°12'11991216.0
2014-Oct-01 10:33N 33°46' W 118°13'11994784.5
2014-Oct-01 10:18N 29°44' W 095°12'11991587.8
2014-Oct-01 09:33N 33°46' W 118°13'11994315636.7
2014-Oct-01 09:33N 29°44' W 095°12'0 0.0
2014-Oct-01 08:33N 29°44' W 095°12'11996263.7
2014-Oct-01 08:22N 33°46' W 118°13'0 0.0
2014-Oct-01 07:33N 33°46' W 118°13'1199205507.1
2014-Oct-01 07:33N 29°44' W 095°12'0 0.0
2014-Oct-01 06:33N 29°44' W 095°12'119921906.8
2014-Oct-01 06:30N 33°46' W 118°13'11991272.3
2014-Oct-01 05:33N 29°44' W 095°12'1199159838.2
2014-Oct-01 05:33N 33°46' W 118°13'0 0.0
2014-Oct-01 04:33N 33°46' W 118°13'119968507.9
2014-Oct-01 04:32N 29°44' W 095°12'11991216.5
2014-Oct-01 03:33N 33°46' W 118°13'0 0.0
2014-Oct-01 02:33N 33°46' W 118°13'0 0.0
2014-Oct-01 01:33N 33°46' W 118°13'11952437.6
2014-Oct-01 01:04N 29°44' W 095°17'11952354.9
2014-Oct-01 00:33N 33°46' W 118°13'0 0.0
2014-Sep-30 23:33N 33°46' W 118°13'11954173.1
2014-Sep-30 23:16N 29°44' W 095°17'11951675.4
2014-Sep-30 22:33N 33°46' W 118°13'119558937.5
2014-Sep-30 22:32N 29°44' W 095°17'11951223.3
2014-Sep-30 21:33N 33°46' W 118°13'1198307937.2
2014-Sep-30 21:33N 29°43' W 095°14'4 4.4
2014-Sep-30 20:33N 29°44' W 095°09'120190091.0
2014-Sep-30 20:33N 33°46' W 118°13'0 0.0
2014-Sep-30 19:33N 33°46' W 118°13'120333062.6
2014-Sep-30 19:31N 29°46' W 095°07'12031249.6
2014-Sep-30 18:33N 33°46' W 118°13'0 0.0
2014-Sep-30 17:33N 33°46' W 118°13'0 0.0
2014-Sep-30 16:26N 33°46' W 118°13'0 0.0
2014-Sep-30 14:32N 33°46' W 118°13'0 0.0
2014-Sep-30 13:33N 33°46' W 118°13'0 0.0
2014-Sep-30 12:33N 33°46' W 118°13'12032941.2
2014-Sep-30 12:09N 29°46' W 095°07'12032005.3
2014-Sep-30 11:33N 33°46' W 118°13'120333058.6
2014-Sep-30 11:31N 29°46' W 095°07'12031255.6
2014-Sep-30 10:33N 33°46' W 118°13'0 0.0
2014-Sep-30 09:33N 33°46' W 118°13'0 0.0
2014-Sep-30 08:33N 33°46' W 118°13'120252786.6
2014-Sep-30 08:32N 29°44' W 095°08'12021234.2
2014-Sep-30 07:33N 33°46' W 118°13'0 0.0
2014-Sep-30 06:32N 33°46' W 118°13'0 0.0
2014-Sep-30 05:33N 33°46' W 118°13'120283240.8
2014-Sep-30 05:33N 29°44' W 095°08'12021210.4
2014-Sep-30 04:33N 33°46' W 118°13'120680433.0
2014-Sep-30 04:32N 29°44' W 095°03'12061210.9
2014-Sep-30 03:32N 33°46' W 118°13'0 0.0
2014-Sep-30 02:33N 33°46' W 118°13'0 0.1
2014-Sep-30 01:33N 33°46' W 118°13'0 0.0
2014-Sep-30 00:33N 33°46' W 118°13'12072538.8
2014-Sep-30 00:05N 29°44' W 095°03'12072300.8
2014-Sep-29 23:33N 33°46' W 118°13'12071447951.9
2014-Sep-29 23:33N 29°44' W 095°03'0 0.0
2014-Sep-29 22:33N 29°44' W 095°03'1207620550.8
2014-Sep-29 22:33N 33°46' W 118°13'0 0.0
2014-Sep-29 21:33N 33°46' W 118°13'1207394896.6
2014-Sep-29 21:33N 29°44' W 095°03'12071210.7
2014-Sep-29 20:33N 33°46' W 118°13'120738104.0
2014-Sep-29 20:32N 29°44' W 095°03'12071246.4
2014-Sep-29 19:33N 33°46' W 118°13'1207334144.1
2014-Sep-29 19:33N 29°44' W 095°03'12071210.3
2014-Sep-29 18:33N 33°46' W 118°13'1207206851.4
2014-Sep-29 18:33N 29°44' W 095°03'12071214.4
2014-Sep-29 17:33N 33°46' W 118°13'12071447948.1
2014-Sep-29 17:33N 29°44' W 095°03'12071207.3
2014-Sep-29 16:33N 33°46' W 118°13'1207131632.0
2014-Sep-29 16:33N 29°44' W 095°03'12071214.4
2014-Sep-29 15:33N 33°46' W 118°13'1207197448.3
2014-Sep-29 15:33N 29°44' W 095°03'12071217.1
2014-Sep-29 14:33N 33°46' W 118°13'1203139755.4
2014-Sep-29 14:33N 29°46' W 095°06'12031213.9
2014-Sep-29 13:33N 33°46' W 118°13'0 0.0
2014-Sep-29 12:33N 33°46' W 118°13'0 0.0
2014-Sep-29 11:33N 33°46' W 118°13'0 0.0
2014-Sep-29 10:33N 33°46' W 118°13'1210362958.9
2014-Sep-29 10:33N 29°41' W 095°00'12101213.9
2014-Sep-29 09:33N 33°46' W 118°13'121047346.2
2014-Sep-29 09:32N 29°41' W 095°00'12101241.3
2014-Sep-29 08:33N 33°46' W 118°13'121014471.3
2014-Sep-29 08:28N 29°41' W 095°00'12101315.2
2014-Sep-29 07:33N 33°46' W 118°13'121039962.0
2014-Sep-29 07:31N 29°41' W 095°00'12101251.3
2014-Sep-29 06:33N 33°46' W 118°13'12104638.8
2014-Sep-29 06:18N 29°41' W 095°00'12101636.9
2014-Sep-29 05:33N 33°46' W 118°13'12102436.1
2014-Sep-29 05:04N 29°41' W 095°00'12102389.4
2014-Sep-29 04:33N 33°46' W 118°13'121014142.4
2014-Sep-29 04:28N 29°41' W 095°00'12101327.2
2014-Sep-29 03:33N 33°46' W 118°13'12102660.9
2014-Sep-29 03:06N 29°41' W 095°00'12102186.7
2014-Sep-29 02:33N 33°46' W 118°13'121033766.2
2014-Sep-29 02:31N 29°41' W 095°00'12101265.5
2014-Sep-29 01:33N 33°46' W 118°13'121090746.6
2014-Sep-29 01:33N 29°41' W 095°00'0 0.0
2014-Sep-29 00:33N 29°41' W 095°00'12104355846.8
2014-Sep-29 00:33N 33°46' W 118°13'0 0.0
2014-Sep-28 23:33N 33°46' W 118°13'1210483880.9
2014-Sep-28 23:33N 29°41' W 095°00'12101212.4
2014-Sep-28 22:33N 33°46' W 118°13'1210242080.3
2014-Sep-28 22:33N 29°41' W 094°60'12101216.8
2014-Sep-28 21:33N 33°46' W 118°13'1206114211.3
2014-Sep-28 21:33N 29°45' W 095°04'12061218.4
2014-Sep-28 20:33N 33°46' W 118°13'120419788.4
2014-Sep-28 20:30N 29°45' W 095°06'12041281.4
2014-Sep-28 19:33N 33°46' W 118°13'1204254921.0
2014-Sep-28 19:33N 29°45' W 095°06'12041209.5
2014-Sep-28 18:33N 33°46' W 118°13'1204541705.0
2014-Sep-28 18:33N 29°45' W 095°06'12041206.8
2014-Sep-28 17:33N 33°46' W 118°13'1204228086.3
2014-Sep-28 17:33N 29°45' W 095°06'12041209.8
2014-Sep-28 16:33N 33°46' W 118°13'1204240757.8
2014-Sep-28 16:33N 29°45' W 095°06'0 0.0
2014-Sep-28 15:33N 29°45' W 095°06'12042166828.8
2014-Sep-28 15:33N 33°46' W 118°13'0 0.0
2014-Sep-28 14:33N 33°46' W 118°13'1204619094.0
2014-Sep-28 14:33N 29°45' W 095°06'12041206.8
2014-Sep-28 13:33N 33°46' W 118°13'1204111119.0
2014-Sep-28 13:33N 29°45' W 095°06'12041209.8
2014-Sep-28 12:33N 33°46' W 118°13'1204228087.6
2014-Sep-28 12:33N 29°45' W 095°06'12041213.6
2014-Sep-28 11:33N 33°46' W 118°13'1204541707.2
2014-Sep-28 11:33N 29°45' W 095°06'12041209.5
2014-Sep-28 10:33N 33°46' W 118°13'1204240742.7
2014-Sep-28 10:33N 29°45' W 095°06'12041210.1
2014-Sep-28 09:33N 33°46' W 118°13'120272092.9
2014-Sep-28 09:32N 29°44' W 095°09'12021221.9
2014-Sep-28 08:33N 33°46' W 118°13'11998843.9
2014-Sep-28 08:25N 29°44' W 095°12'11991386.8
2014-Sep-28 07:33N 33°46' W 118°13'1199479534.7
2014-Sep-28 07:33N 29°44' W 095°12'11991201.8
2014-Sep-28 06:33N 33°46' W 118°13'119911417.5
2014-Sep-28 06:27N 29°44' W 095°12'11991343.2
2014-Sep-28 05:34N 33°46' W 118°13'11997611.7
2014-Sep-28 05:24N 29°44' W 095°12'11991418.7
2014-Sep-28 04:33N 33°46' W 118°13'1199479535.5
2014-Sep-28 04:33N 29°44' W 095°12'11991198.5
2014-Sep-28 03:33N 33°46' W 118°13'11996983.5
2014-Sep-28 03:23N 29°44' W 095°12'11991452.2
2014-Sep-28 02:33N 33°46' W 118°13'11992455.0
2014-Sep-28 02:04N 29°44' W 095°12'11992330.4
2014-Sep-28 01:33N 33°46' W 118°13'1199479534.7
2014-Sep-28 01:33N 29°44' W 095°12'11991202.2
2014-Sep-28 00:33N 33°46' W 118°13'119988077.8
2014-Sep-28 00:32N 29°44' W 095°12'1 1.4
2014-Sep-27 23:33N 29°44' W 095°13'11982156704.6
2014-Sep-27 23:33N 33°46' W 118°13'0 0.0
2014-Sep-27 22:33N 33°46' W 118°13'1196143489.2
2014-Sep-27 22:33N 29°44' W 095°16'11961206.1
2014-Sep-27 21:33N 33°46' W 118°13'119627073.4
2014-Sep-27 21:31N 29°44' W 095°16'0 0.0
2014-Sep-27 20:33N 29°44' W 095°16'11962152337.5
2014-Sep-27 20:33N 33°46' W 118°13'0 0.0
2014-Sep-27 19:33N 33°46' W 118°13'1196226562.2
2014-Sep-27 19:33N 29°44' W 095°16'0 0.0
2014-Sep-27 18:33N 29°44' W 095°16'11964304675.1
2014-Sep-27 18:33N 33°46' W 118°13'0 0.0
2014-Sep-27 17:33N 33°46' W 118°13'119687850.5
2014-Sep-27 17:33N 29°44' W 095°16'11961212.2
2014-Sep-27 16:33N 33°46' W 118°13'1196538024.4
2014-Sep-27 16:33N 29°44' W 095°16'11961197.9
2014-Sep-27 15:33N 33°46' W 118°13'1200617091.5
2014-Sep-27 15:33N 29°45' W 095°11'12001198.9
2014-Sep-27 14:33N 33°46' W 118°13'1206619987.9
2014-Sep-27 14:33N 29°45' W 095°04'12061211.9
2014-Sep-27 13:33N 33°46' W 118°13'1211396409.2
2014-Sep-27 13:33N 29°41' W 094°59'12111214.3
2014-Sep-27 12:33N 33°46' W 118°13'1216243230.0
2014-Sep-27 12:33N 29°34' W 094°55'7 7.5
2014-Sep-27 11:33N 29°28' W 094°51'1222366540.0
2014-Sep-27 11:33N 33°46' W 118°13'0 0.0
2014-Sep-27 10:33N 33°46' W 118°13'0 0.0
2014-Sep-27 09:33N 33°46' W 118°13'0 0.0
2014-Sep-27 08:33N 33°46' W 118°13'0 0.0
2014-Sep-27 07:33N 33°46' W 118°13'0 0.0
2014-Sep-27 06:33N 33°46' W 118°13'0 0.0
2014-Sep-27 05:33N 33°46' W 118°13'0 0.0
2014-Sep-27 04:33N 33°46' W 118°13'0 0.0
2014-Sep-27 03:33N 33°46' W 118°13'0 0.0
2014-Sep-27 02:33N 33°46' W 118°13'122356466.8
2014-Sep-27 02:32N 29°25' W 094°50'12231250.2
2014-Sep-27 01:33N 33°46' W 118°13'1219487484.6
2014-Sep-27 01:33N 29°31' W 094°53'12191222.1
2014-Sep-27 00:33N 33°46' W 118°13'1213485341.7
2014-Sep-27 00:33N 29°37' W 094°57'12131216.4
2014-Sep-26 23:33N 33°46' W 118°13'1208217519.0
2014-Sep-26 23:33N 29°43' W 095°01'5 5.1
2014-Sep-26 22:33N 29°44' W 095°07'12034332113.7
2014-Sep-26 22:33N 33°46' W 118°13'0 0.0
2014-Sep-26 21:33N 33°46' W 118°13'1197538828.3
2014-Sep-26 21:33N 29°43' W 095°14'11971203.4
2014-Sep-26 20:33N 33°46' W 118°13'119719951.0
2014-Sep-26 20:30N 29°43' W 095°15'11971276.9
2014-Sep-26 19:34N 33°46' W 118°13'119719238.4
2014-Sep-26 19:30N 29°43' W 095°15'11971276.5
2014-Sep-26 18:34N 33°46' W 118°13'119719499.6
2014-Sep-26 18:30N 29°43' W 095°15'11971275.4
2014-Sep-26 17:34N 33°46' W 118°13'11974545.8
2014-Sep-26 17:18N 29°43' W 095°15'11971625.0
2014-Sep-26 16:34N 33°46' W 118°13'11973840.8
2014-Sep-26 16:15N 29°43' W 095°15'11971739.8
2014-Sep-26 15:34N 33°46' W 118°13'11977353.9
2014-Sep-26 15:24N 29°43' W 095°15'11971424.6
2014-Sep-26 14:33N 33°46' W 118°13'0 0.0
2014-Sep-26 13:33N 33°46' W 118°13'11971077176.5
2014-Sep-26 13:33N 29°43' W 095°15'11971198.2
2014-Sep-26 12:33N 33°46' W 118°13'12011080521.2
2014-Sep-26 12:33N 29°45' W 095°10'12011205.6
2014-Sep-26 11:34N 33°46' W 118°13'0 0.0
2014-Sep-26 10:34N 33°46' W 118°13'0 0.0
2014-Sep-26 09:34N 33°46' W 118°13'0 0.0
2014-Sep-26 08:33N 33°46' W 118°13'0 0.0
2014-Sep-26 07:34N 33°46' W 118°13'0 0.0
2014-Sep-26 06:33N 33°46' W 118°13'0 0.0
2014-Sep-26 05:34N 33°46' W 118°13'0 0.0
2014-Sep-26 04:34N 33°46' W 118°13'0 0.0
2014-Sep-26 03:34N 33°46' W 118°13'0 0.0
2014-Sep-26 02:34N 33°46' W 118°13'1202270385.5
2014-Sep-26 02:33N 29°44' W 095°09'12021203.7
2014-Sep-26 01:33N 33°46' W 118°13'0 0.0
2014-Sep-26 00:34N 33°46' W 118°13'11972509.5
2014-Sep-26 00:05N 29°43' W 095°15'11972288.3
2014-Sep-25 23:34N 33°46' W 118°13'119715499.4
2014-Sep-25 23:29N 29°43' W 095°15'11971293.2
2014-Sep-25 22:33N 33°46' W 118°13'119745842.1
2014-Sep-25 22:32N 29°43' W 095°15'11971232.6
2014-Sep-25 21:34N 33°46' W 118°13'120298360.5
2014-Sep-25 21:33N 29°44' W 095°08'5 5.1
2014-Sep-25 20:33N 29°44' W 095°03'1207869127.3
2014-Sep-25 20:33N 33°46' W 118°13'0 0.0
2014-Sep-25 19:34N 33°46' W 118°13'121038199.5
2014-Sep-25 19:32N 29°41' W 095°00'12101249.2
2014-Sep-25 18:34N 33°46' W 118°13'121038199.2
2014-Sep-25 18:32N 29°41' W 095°00'12101248.8
2014-Sep-25 17:34N 33°46' W 118°13'1209140406.8
2014-Sep-25 17:33N 29°42' W 095°01'12091219.9
2014-Sep-25 16:34N 33°46' W 118°13'1204361164.4
2014-Sep-25 16:33N 29°45' W 095°06'12041207.9
2014-Sep-25 15:34N 33°46' W 118°13'120227927.2
2014-Sep-25 15:31N 29°44' W 095°08'12021256.5
2014-Sep-25 14:34N 33°46' W 118°13'120228858.1
2014-Sep-25 14:31N 29°44' W 095°08'12021255.1
2014-Sep-25 13:34N 33°46' W 118°13'120227748.2
2014-Sep-25 13:31N 29°44' W 095°08'12021256.5
2014-Sep-25 12:34N 33°46' W 118°13'120228667.0
2014-Sep-25 12:31N 29°44' W 095°08'12021254.7
2014-Sep-25 11:34N 33°46' W 118°13'1202480967.9
2014-Sep-25 11:33N 29°44' W 095°08'12021202.1
2014-Sep-25 10:33N 33°46' W 118°13'0 0.0
2014-Sep-25 09:34N 33°46' W 118°13'0 0.0
2014-Sep-25 08:34N 33°46' W 118°13'0 0.0
2014-Sep-25 07:34N 33°46' W 118°13'0 0.0
2014-Sep-25 06:34N 33°46' W 118°13'0 0.0
2014-Sep-25 05:34N 33°46' W 118°13'1204117116.7
2014-Sep-25 05:33N 29°45' W 095°06'12041212.8
2014-Sep-25 04:33N 33°46' W 118°13'11994035.5
2014-Sep-25 04:16N 29°45' W 095°11'11991706.7
2014-Sep-25 03:33N 33°46' W 118°13'119912516.1
2014-Sep-25 03:28N 29°45' W 095°11'11991318.1
2014-Sep-25 02:33N 33°46' W 118°13'11996285.3
2014-Sep-25 02:22N 29°45' W 095°11'11991497.8
2014-Sep-25 01:34N 33°46' W 118°13'0 0.0
2014-Sep-25 00:33N 33°46' W 118°13'0 0.0
2014-Sep-24 23:33N 33°46' W 118°13'119912232.4
2014-Sep-24 23:27N 29°45' W 095°11'11991333.5
2014-Sep-24 22:34N 33°46' W 118°13'119924395.8
2014-Sep-24 22:31N 29°45' W 095°11'11991257.8
2014-Sep-24 21:33N 33°46' W 118°13'12002409.7
2014-Sep-24 21:03N 29°45' W 095°11'12002400.3
2014-Sep-24 20:34N 33°46' W 118°13'1202139580.3
2014-Sep-24 20:33N 29°44' W 095°09'12021209.0
2014-Sep-24 19:33N 33°46' W 118°13'120310912.2
2014-Sep-24 19:27N 29°45' W 095°07'12031353.4
2014-Sep-24 18:33N 33°46' W 118°13'12037508.0
2014-Sep-24 18:24N 29°45' W 095°07'12031432.1
2014-Sep-24 17:33N 33°46' W 118°13'120320056.2
2014-Sep-24 17:30N 29°45' W 095°07'12031284.4
2014-Sep-24 16:34N 33°46' W 118°13'120318835.5
2014-Sep-24 16:30N 29°45' W 095°07'12031282.5
2014-Sep-24 15:33N 33°46' W 118°13'12034613.6
2014-Sep-24 15:18N 29°45' W 095°07'12031628.0
2014-Sep-24 14:33N 33°46' W 118°13'12035692.6
2014-Sep-24 14:21N 29°45' W 095°07'12031525.4
2014-Sep-24 13:33N 33°46' W 118°13'12036998.8
2014-Sep-24 13:23N 29°45' W 095°07'12031448.4
2014-Sep-24 12:33N 33°46' W 118°13'1203541539.6
2014-Sep-24 12:33N 29°46' W 095°06'12031209.5
2014-Sep-24 11:33N 33°46' W 118°13'0 0.0
2014-Sep-24 10:33N 33°46' W 118°13'0 0.0
2014-Sep-24 09:33N 33°46' W 118°13'0 0.0
2014-Sep-24 08:33N 33°46' W 118°13'0 0.0
2014-Sep-24 07:33N 33°46' W 118°13'0 0.0
2014-Sep-24 06:33N 33°46' W 118°13'0 0.0
2014-Sep-24 05:33N 33°46' W 118°13'0 0.0
2014-Sep-24 04:33N 33°46' W 118°13'0 0.0
2014-Sep-24 03:33N 33°46' W 118°13'0 0.0
2014-Sep-24 02:33N 33°46' W 118°13'0 0.0
2014-Sep-24 01:33N 33°46' W 118°13'0 0.0
2014-Sep-24 00:33N 33°46' W 118°13'120353460.7
2014-Sep-24 00:32N 29°46' W 095°07'1 1.3
2014-Sep-23 23:33N 29°47' W 095°06'12034332138.5
2014-Sep-23 23:33N 33°46' W 118°13'0 0.0
2014-Sep-23 22:33N 33°46' W 118°13'120312778.6
2014-Sep-23 22:28N 29°47' W 095°06'12031328.4
2014-Sep-23 21:33N 33°46' W 118°13'120326576.3
2014-Sep-23 21:31N 29°47' W 095°06'12031263.7
2014-Sep-23 20:34N 33°46' W 118°13'120326096.0
2014-Sep-23 20:31N 29°47' W 095°06'12031258.2
2014-Sep-23 19:33N 33°46' W 118°13'12036197.4
2014-Sep-23 19:22N 29°47' W 095°06'12031488.1
2014-Sep-23 18:33N 33°46' W 118°13'12038510.7
2014-Sep-23 18:25N 29°47' W 095°06'12031406.0
2014-Sep-23 17:33N 33°46' W 118°13'120327244.9
2014-Sep-23 17:31N 29°47' W 095°06'12031258.9
2014-Sep-23 16:33N 33°46' W 118°13'120312703.7
2014-Sep-23 16:28N 29°47' W 095°06'12031325.6
2014-Sep-23 15:33N 33°46' W 118°13'12038411.5
2014-Sep-23 15:25N 29°47' W 095°06'12031398.8
2014-Sep-23 14:33N 33°46' W 118°13'120335801.5
2014-Sep-23 14:31N 29°47' W 095°06'12031252.7
2014-Sep-23 13:33N 33°46' W 118°13'120331165.4
2014-Sep-23 13:31N 29°47' W 095°06'12031251.7
2014-Sep-23 12:33N 33°46' W 118°13'0 0.0
2014-Sep-23 11:33N 33°46' W 118°13'0 0.0
2014-Sep-23 10:33N 33°46' W 118°13'0 0.0
2014-Sep-23 09:33N 33°46' W 118°13'0 0.0
2014-Sep-23 08:33N 33°46' W 118°13'0 0.0
2014-Sep-23 07:33N 33°46' W 118°13'0 0.0
2014-Sep-23 06:33N 33°46' W 118°13'0 0.0
2014-Sep-23 05:33N 33°46' W 118°13'12038595.2
2014-Sep-23 05:25N 29°47' W 095°06'12031398.3
2014-Sep-23 04:33N 33°46' W 118°13'120330942.9
2014-Sep-23 04:31N 29°47' W 095°06'12031252.0
2014-Sep-23 03:33N 33°46' W 118°13'120330507.1
2014-Sep-23 03:31N 29°47' W 095°06'12031252.7
2014-Sep-23 02:33N 33°46' W 118°13'120331165.5
2014-Sep-23 02:31N 29°47' W 095°06'12031252.4
2014-Sep-23 01:33N 33°46' W 118°13'120330507.0
2014-Sep-23 01:31N 29°47' W 095°06'12031252.4
2014-Sep-23 00:33N 33°46' W 118°13'120329469.4
2014-Sep-23 00:31N 29°47' W 095°06'12031247.3
2014-Sep-22 23:33N 33°46' W 118°13'120334935.5
2014-Sep-22 23:31N 29°47' W 095°06'12031253.5
2014-Sep-22 22:33N 33°46' W 118°13'120313288.4
2014-Sep-22 22:28N 29°47' W 095°06'12031323.2
2014-Sep-22 21:33N 33°46' W 118°13'120329875.9
2014-Sep-22 21:31N 29°47' W 095°06'12031253.8
2014-Sep-22 20:33N 33°46' W 118°13'120330293.7
2014-Sep-22 20:31N 29°47' W 095°06'12031253.1
2014-Sep-22 19:33N 33°46' W 118°13'120329875.9
2014-Sep-22 19:31N 29°47' W 095°06'12031253.8
2014-Sep-22 18:33N 33°46' W 118°13'120330293.7
2014-Sep-22 18:31N 29°47' W 095°06'12031253.1
2014-Sep-22 17:33N 33°46' W 118°13'120329073.7
2014-Sep-22 17:31N 29°47' W 095°06'12031255.3
2014-Sep-22 16:33N 33°46' W 118°13'120329270.3
2014-Sep-22 16:31N 29°47' W 095°06'12031254.9
2014-Sep-22 15:33N 33°46' W 118°13'120330083.3
2014-Sep-22 15:31N 29°47' W 095°06'12031253.5
2014-Sep-22 14:33N 33°46' W 118°13'120330083.4
2014-Sep-22 14:31N 29°47' W 095°06'12031242.3
2014-Sep-22 13:33N 33°46' W 118°13'12039062.8
2014-Sep-22 13:25N 29°47' W 095°06'12031397.0
2014-Sep-22 12:33N 33°46' W 118°13'120331620.4
2014-Sep-22 12:31N 29°47' W 095°06'12031254.2
2014-Sep-22 11:33N 33°46' W 118°13'120329270.3
2014-Sep-22 11:31N 29°47' W 095°06'12031255.3
2014-Sep-22 10:33N 33°46' W 118°13'0 0.0
2014-Sep-22 09:33N 33°46' W 118°13'12034990.8
2014-Sep-22 09:19N 29°47' W 095°06'12031585.7
2014-Sep-22 08:33N 33°46' W 118°13'12033533.4
2014-Sep-22 08:13N 29°47' W 095°06'12031824.8
2014-Sep-22 07:33N 33°46' W 118°13'12038510.8
2014-Sep-22 07:25N 29°47' W 095°06'12031401.9
2014-Sep-22 06:33N 33°46' W 118°13'120313048.2
2014-Sep-22 06:28N 29°47' W 095°06'12031325.2
2014-Sep-22 05:33N 33°46' W 118°13'120329270.3
2014-Sep-22 05:31N 29°47' W 095°06'12031254.9
2014-Sep-22 04:33N 33°46' W 118°13'120313167.2
2014-Sep-22 04:28N 29°47' W 095°06'12031324.0
2014-Sep-22 03:33N 33°46' W 118°13'120329469.4
2014-Sep-22 03:31N 29°47' W 095°06'12031254.6
2014-Sep-22 02:33N 33°46' W 118°13'120330083.3
2014-Sep-22 02:31N 29°47' W 095°06'12031253.5
2014-Sep-22 01:33N 33°46' W 118°13'120313329.2
2014-Sep-22 01:28N 29°47' W 095°06'12031323.2
2014-Sep-22 00:33N 33°46' W 118°13'120313048.2
2014-Sep-22 00:28N 29°47' W 095°06'12031325.6
2014-Sep-21 23:33N 33°46' W 118°13'120329469.4
2014-Sep-21 23:31N 29°47' W 095°06'12031254.2
2014-Sep-21 22:33N 33°46' W 118°13'120328688.6
2014-Sep-21 22:31N 29°47' W 095°06'12031256.4
2014-Sep-21 21:33N 33°46' W 118°13'  
Track history (hours):
 
Tides and Currents Weather Stations Pressure Air Temp Water Temp Dewpoint Dewpoint Depression Visibility Wind Speed Wind Dir Waves Ship Positions

Patcona II

Owner: Connolly-Pacific Co, long beach, CA. More information available from US FCC via Universal Licensing System and Coast Guard Vessel Documentation Center.

Last reported at 2014-Oct-01 21:33 UTC. Time now 2014-Oct-01 22:24 UTC.
Position N 33°46' W 118°13'.

; draft 9 m.

Type: Towing. MMSI: 366988960.

Date/timePositionNaut miles runAvg speedWind from/ knotsBaromVisibWave heightAir tempDewpointWater temp
2014-Oct-01 21:33N 33°46' W 118°13'1210363031.1
2014-Oct-01 21:33N 29°41' W 095°00'12101214.5
2014-Oct-01 20:33N 33°46' W 118°13'1210335104.3
2014-Oct-01 20:33N 29°41' W 095°00'0 0.3
2014-Oct-01 19:33N 29°41' W 094°60'5 5.5
2014-Oct-01 18:33N 29°45' W 095°04'2 2.3
2014-Oct-01 17:32N 29°46' W 095°06'12031201.4
2014-Oct-01 16:32N 33°46' W 118°13'120324896.1
2014-Oct-01 16:29N 29°47' W 095°06'0 0.0
2014-Oct-01 15:30N 29°47' W 095°06'12031271.5
2014-Oct-01 14:33N 33°46' W 118°13'1203127409.2
2014-Oct-01 14:33N 29°47' W 095°06'0 0.0
2014-Oct-01 13:33N 29°47' W 095°06'12039316.0
2014-Oct-01 13:26N 33°46' W 118°13'12021372.5
2014-Oct-01 12:33N 29°44' W 095°08'120234085.2
2014-Oct-01 12:31N 33°46' W 118°13'0 0.0
2014-Oct-01 11:33N 33°46' W 118°13'1199359636.4
2014-Oct-01 11:32N 29°44' W 095°12'11991216.0
2014-Oct-01 10:33N 33°46' W 118°13'11994784.5
2014-Oct-01 10:18N 29°44' W 095°12'11991587.8
2014-Oct-01 09:33N 33°46' W 118°13'11994315636.7
2014-Oct-01 09:33N 29°44' W 095°12'0 0.0
2014-Oct-01 08:33N 29°44' W 095°12'11996263.7
2014-Oct-01 08:22N 33°46' W 118°13'0 0.0
2014-Oct-01 07:33N 33°46' W 118°13'1199205507.1
2014-Oct-01 07:33N 29°44' W 095°12'0 0.0
2014-Oct-01 06:33N 29°44' W 095°12'119921906.8
2014-Oct-01 06:30N 33°46' W 118°13'11991272.3
2014-Oct-01 05:33N 29°44' W 095°12'1199159838.2
2014-Oct-01 05:33N 33°46' W 118°13'0 0.0
2014-Oct-01 04:33N 33°46' W 118°13'119968507.9
2014-Oct-01 04:32N 29°44' W 095°12'11991216.5
2014-Oct-01 03:33N 33°46' W 118°13'0 0.0
2014-Oct-01 02:33N 33°46' W 118°13'0 0.0
2014-Oct-01 01:33N 33°46' W 118°13'11952437.6
2014-Oct-01 01:04N 29°44' W 095°17'11952354.9
2014-Oct-01 00:33N 33°46' W 118°13'0 0.0
2014-Sep-30 23:33N 33°46' W 118°13'11954173.1
2014-Sep-30 23:16N 29°44' W 095°17'11951675.4
2014-Sep-30 22:33N 33°46' W 118°13'119558937.5
2014-Sep-30 22:32N 29°44' W 095°17'11951223.3
2014-Sep-30 21:33N 33°46' W 118°13'1198307937.2
2014-Sep-30 21:33N 29°43' W 095°14'4 4.4
2014-Sep-30 20:33N 29°44' W 095°09'120190091.0
2014-Sep-30 20:33N 33°46' W 118°13'0 0.0
2014-Sep-30 19:33N 33°46' W 118°13'120333062.6
2014-Sep-30 19:31N 29°46' W 095°07'12031249.6
2014-Sep-30 18:33N 33°46' W 118°13'0 0.0
2014-Sep-30 17:33N 33°46' W 118°13'0 0.0
2014-Sep-30 16:26N 33°46' W 118°13'0 0.0
2014-Sep-30 14:32N 33°46' W 118°13'0 0.0
2014-Sep-30 13:33N 33°46' W 118°13'0 0.0
2014-Sep-30 12:33N 33°46' W 118°13'12032941.2
2014-Sep-30 12:09N 29°46' W 095°07'12032005.3
2014-Sep-30 11:33N 33°46' W 118°13'120333058.6
2014-Sep-30 11:31N 29°46' W 095°07'12031255.6
2014-Sep-30 10:33N 33°46' W 118°13'0 0.0
2014-Sep-30 09:33N 33°46' W 118°13'0 0.0
2014-Sep-30 08:33N 33°46' W 118°13'120252786.6
2014-Sep-30 08:32N 29°44' W 095°08'12021234.2
2014-Sep-30 07:33N 33°46' W 118°13'0 0.0
2014-Sep-30 06:32N 33°46' W 118°13'0 0.0
2014-Sep-30 05:33N 33°46' W 118°13'120283240.8
2014-Sep-30 05:33N 29°44' W 095°08'12021210.4
2014-Sep-30 04:33N 33°46' W 118°13'120680433.0
2014-Sep-30 04:32N 29°44' W 095°03'12061210.9
2014-Sep-30 03:32N 33°46' W 118°13'0 0.0
2014-Sep-30 02:33N 33°46' W 118°13'0 0.1
2014-Sep-30 01:33N 33°46' W 118°13'0 0.0
2014-Sep-30 00:33N 33°46' W 118°13'12072538.8
2014-Sep-30 00:05N 29°44' W 095°03'12072300.8
2014-Sep-29 23:33N 33°46' W 118°13'12071447951.9
2014-Sep-29 23:33N 29°44' W 095°03'0 0.0
2014-Sep-29 22:33N 29°44' W 095°03'1207620550.8
2014-Sep-29 22:33N 33°46' W 118°13'0 0.0
2014-Sep-29 21:33N 33°46' W 118°13'1207394896.6
2014-Sep-29 21:33N 29°44' W 095°03'12071210.7
2014-Sep-29 20:33N 33°46' W 118°13'120738104.0
2014-Sep-29 20:32N 29°44' W 095°03'12071246.4
2014-Sep-29 19:33N 33°46' W 118°13'1207334144.1
2014-Sep-29 19:33N 29°44' W 095°03'12071210.3
2014-Sep-29 18:33N 33°46' W 118°13'1207206851.4
2014-Sep-29 18:33N 29°44' W 095°03'12071214.4
2014-Sep-29 17:33N 33°46' W 118°13'12071447948.1
2014-Sep-29 17:33N 29°44' W 095°03'12071207.3
2014-Sep-29 16:33N 33°46' W 118°13'1207131632.0
2014-Sep-29 16:33N 29°44' W 095°03'12071214.4
2014-Sep-29 15:33N 33°46' W 118°13'1207197448.3
2014-Sep-29 15:33N 29°44' W 095°03'12071217.1
2014-Sep-29 14:33N 33°46' W 118°13'1203139755.4
2014-Sep-29 14:33N 29°46' W 095°06'12031213.9
2014-Sep-29 13:33N 33°46' W 118°13'0 0.0
2014-Sep-29 12:33N 33°46' W 118°13'0 0.0
2014-Sep-29 11:33N 33°46' W 118°13'0 0.0
2014-Sep-29 10:33N 33°46' W 118°13'1210362958.9
2014-Sep-29 10:33N 29°41' W 095°00'12101213.9
2014-Sep-29 09:33N 33°46' W 118°13'121047346.2
2014-Sep-29 09:32N 29°41' W 095°00'12101241.3
2014-Sep-29 08:33N 33°46' W 118°13'121014471.3
2014-Sep-29 08:28N 29°41' W 095°00'12101315.2
2014-Sep-29 07:33N 33°46' W 118°13'121039962.0
2014-Sep-29 07:31N 29°41' W 095°00'12101251.3
2014-Sep-29 06:33N 33°46' W 118°13'12104638.8
2014-Sep-29 06:18N 29°41' W 095°00'12101636.9
2014-Sep-29 05:33N 33°46' W 118°13'12102436.1
2014-Sep-29 05:04N 29°41' W 095°00'12102389.4
2014-Sep-29 04:33N 33°46' W 118°13'121014142.4
2014-Sep-29 04:28N 29°41' W 095°00'12101327.2
2014-Sep-29 03:33N 33°46' W 118°13'12102660.9
2014-Sep-29 03:06N 29°41' W 095°00'12102186.7
2014-Sep-29 02:33N 33°46' W 118°13'121033766.2
2014-Sep-29 02:31N 29°41' W 095°00'12101265.5
2014-Sep-29 01:33N 33°46' W 118°13'121090746.6
2014-Sep-29 01:33N 29°41' W 095°00'0 0.0
2014-Sep-29 00:33N 29°41' W 095°00'12104355846.8
2014-Sep-29 00:33N 33°46' W 118°13'0 0.0
2014-Sep-28 23:33N 33°46' W 118°13'1210483880.9
2014-Sep-28 23:33N 29°41' W 095°00'12101212.4
2014-Sep-28 22:33N 33°46' W 118°13'1210242080.3
2014-Sep-28 22:33N 29°41' W 094°60'12101216.8
2014-Sep-28 21:33N 33°46' W 118°13'1206114211.3
2014-Sep-28 21:33N 29°45' W 095°04'12061218.4
2014-Sep-28 20:33N 33°46' W 118°13'120419788.4
2014-Sep-28 20:30N 29°45' W 095°06'12041281.4
2014-Sep-28 19:33N 33°46' W 118°13'1204254921.0
2014-Sep-28 19:33N 29°45' W 095°06'12041209.5
2014-Sep-28 18:33N 33°46' W 118°13'1204541705.0
2014-Sep-28 18:33N 29°45' W 095°06'12041206.8
2014-Sep-28 17:33N 33°46' W 118°13'1204228086.3
2014-Sep-28 17:33N 29°45' W 095°06'12041209.8
2014-Sep-28 16:33N 33°46' W 118°13'1204240757.8
2014-Sep-28 16:33N 29°45' W 095°06'0 0.0
2014-Sep-28 15:33N 29°45' W 095°06'12042166828.8
2014-Sep-28 15:33N 33°46' W 118°13'0 0.0
2014-Sep-28 14:33N 33°46' W 118°13'1204619094.0
2014-Sep-28 14:33N 29°45' W 095°06'12041206.8
2014-Sep-28 13:33N 33°46' W 118°13'1204111119.0
2014-Sep-28 13:33N 29°45' W 095°06'12041209.8
2014-Sep-28 12:33N 33°46' W 118°13'1204228087.6
2014-Sep-28 12:33N 29°45' W 095°06'12041213.6
2014-Sep-28 11:33N 33°46' W 118°13'1204541707.2
2014-Sep-28 11:33N 29°45' W 095°06'12041209.5
2014-Sep-28 10:33N 33°46' W 118°13'1204240742.7
2014-Sep-28 10:33N 29°45' W 095°06'12041210.1
2014-Sep-28 09:33N 33°46' W 118°13'120272092.9
2014-Sep-28 09:32N 29°44' W 095°09'12021221.9
2014-Sep-28 08:33N 33°46' W 118°13'11998843.9
2014-Sep-28 08:25N 29°44' W 095°12'11991386.8
2014-Sep-28 07:33N 33°46' W 118°13'1199479534.7
2014-Sep-28 07:33N 29°44' W 095°12'11991201.8
2014-Sep-28 06:33N 33°46' W 118°13'119911417.5
2014-Sep-28 06:27N 29°44' W 095°12'11991343.2
2014-Sep-28 05:34N 33°46' W 118°13'11997611.7
2014-Sep-28 05:24N 29°44' W 095°12'11991418.7
2014-Sep-28 04:33N 33°46' W 118°13'1199479535.5
2014-Sep-28 04:33N 29°44' W 095°12'11991198.5
2014-Sep-28 03:33N 33°46' W 118°13'11996983.5
2014-Sep-28 03:23N 29°44' W 095°12'11991452.2
2014-Sep-28 02:33N 33°46' W 118°13'11992455.0
2014-Sep-28 02:04N 29°44' W 095°12'11992330.4
2014-Sep-28 01:33N 33°46' W 118°13'1199479534.7
2014-Sep-28 01:33N 29°44' W 095°12'11991202.2
2014-Sep-28 00:33N 33°46' W 118°13'119988077.8
2014-Sep-28 00:32N 29°44' W 095°12'1 1.4
2014-Sep-27 23:33N 29°44' W 095°13'11982156704.6
2014-Sep-27 23:33N 33°46' W 118°13'0 0.0
2014-Sep-27 22:33N 33°46' W 118°13'1196143489.2
2014-Sep-27 22:33N 29°44' W 095°16'11961206.1
2014-Sep-27 21:33N 33°46' W 118°13'119627073.4
2014-Sep-27 21:31N 29°44' W 095°16'0 0.0
2014-Sep-27 20:33N 29°44' W 095°16'11962152337.5
2014-Sep-27 20:33N 33°46' W 118°13'0 0.0
2014-Sep-27 19:33N 33°46' W 118°13'1196226562.2
2014-Sep-27 19:33N 29°44' W 095°16'0 0.0
2014-Sep-27 18:33N 29°44' W 095°16'11964304675.1
2014-Sep-27 18:33N 33°46' W 118°13'0 0.0
2014-Sep-27 17:33N 33°46' W 118°13'119687850.5
2014-Sep-27 17:33N 29°44' W 095°16'11961212.2
2014-Sep-27 16:33N 33°46' W 118°13'1196538024.4
2014-Sep-27 16:33N 29°44' W 095°16'11961197.9
2014-Sep-27 15:33N 33°46' W 118°13'1200617091.5
2014-Sep-27 15:33N 29°45' W 095°11'12001198.9
2014-Sep-27 14:33N 33°46' W 118°13'1206619987.9
2014-Sep-27 14:33N 29°45' W 095°04'12061211.9
2014-Sep-27 13:33N 33°46' W 118°13'1211396409.2
2014-Sep-27 13:33N 29°41' W 094°59'12111214.3
2014-Sep-27 12:33N 33°46' W 118°13'1216243230.0
2014-Sep-27 12:33N 29°34' W 094°55'7 7.5
2014-Sep-27 11:33N 29°28' W 094°51'1222366540.0
2014-Sep-27 11:33N 33°46' W 118°13'0 0.0
2014-Sep-27 10:33N 33°46' W 118°13'0 0.0
2014-Sep-27 09:33N 33°46' W 118°13'0 0.0
2014-Sep-27 08:33N 33°46' W 118°13'0 0.0
2014-Sep-27 07:33N 33°46' W 118°13'0 0.0
2014-Sep-27 06:33N 33°46' W 118°13'0 0.0
2014-Sep-27 05:33N 33°46' W 118°13'0 0.0
2014-Sep-27 04:33N 33°46' W 118°13'0 0.0
2014-Sep-27 03:33N 33°46' W 118°13'0 0.0
2014-Sep-27 02:33N 33°46' W 118°13'122356466.8
2014-Sep-27 02:32N 29°25' W 094°50'12231250.2
2014-Sep-27 01:33N 33°46' W 118°13'1219487484.6
2014-Sep-27 01:33N 29°31' W 094°53'12191222.1
2014-Sep-27 00:33N 33°46' W 118°13'1213485341.7
2014-Sep-27 00:33N 29°37' W 094°57'12131216.4
2014-Sep-26 23:33N 33°46' W 118°13'1208217519.0
2014-Sep-26 23:33N 29°43' W 095°01'5 5.1
2014-Sep-26 22:33N 29°44' W 095°07'12034332113.7
2014-Sep-26 22:33N 33°46' W 118°13'0 0.0
2014-Sep-26 21:33N 33°46' W 118°13'1197538828.3
2014-Sep-26 21:33N 29°43' W 095°14'11971203.4
2014-Sep-26 20:33N 33°46' W 118°13'119719951.0
2014-Sep-26 20:30N 29°43' W 095°15'11971276.9
2014-Sep-26 19:34N 33°46' W 118°13'119719238.4
2014-Sep-26 19:30N 29°43' W 095°15'11971276.5
2014-Sep-26 18:34N 33°46' W 118°13'119719499.6
2014-Sep-26 18:30N 29°43' W 095°15'11971275.4
2014-Sep-26 17:34N 33°46' W 118°13'11974545.8
2014-Sep-26 17:18N 29°43' W 095°15'11971625.0
2014-Sep-26 16:34N 33°46' W 118°13'11973840.8
2014-Sep-26 16:15N 29°43' W 095°15'11971739.8
2014-Sep-26 15:34N 33°46' W 118°13'11977353.9
2014-Sep-26 15:24N 29°43' W 095°15'11971424.6
2014-Sep-26 14:33N 33°46' W 118°13'0 0.0
2014-Sep-26 13:33N 33°46' W 118°13'11971077176.5
2014-Sep-26 13:33N 29°43' W 095°15'11971198.2
2014-Sep-26 12:33N 33°46' W 118°13'12011080521.2
2014-Sep-26 12:33N 29°45' W 095°10'12011205.6
2014-Sep-26 11:34N 33°46' W 118°13'0 0.0
2014-Sep-26 10:34N 33°46' W 118°13'0 0.0
2014-Sep-26 09:34N 33°46' W 118°13'0 0.0
2014-Sep-26 08:33N 33°46' W 118°13'0 0.0
2014-Sep-26 07:34N 33°46' W 118°13'0 0.0
2014-Sep-26 06:33N 33°46' W 118°13'0 0.0
2014-Sep-26 05:34N 33°46' W 118°13'0 0.0
2014-Sep-26 04:34N 33°46' W 118°13'0 0.0
2014-Sep-26 03:34N 33°46' W 118°13'0 0.0
2014-Sep-26 02:34N 33°46' W 118°13'1202270385.5
2014-Sep-26 02:33N 29°44' W 095°09'12021203.7
2014-Sep-26 01:33N 33°46' W 118°13'0 0.0
2014-Sep-26 00:34N 33°46' W 118°13'11972509.5
2014-Sep-26 00:05N 29°43' W 095°15'11972288.3
2014-Sep-25 23:34N 33°46' W 118°13'119715499.4
2014-Sep-25 23:29N 29°43' W 095°15'11971293.2
2014-Sep-25 22:33N 33°46' W 118°13'119745842.1
2014-Sep-25 22:32N 29°43' W 095°15'11971232.6
2014-Sep-25 21:34N 33°46' W 118°13'120298360.5
2014-Sep-25 21:33N 29°44' W 095°08'5 5.1
2014-Sep-25 20:33N 29°44' W 095°03'1207869127.3
2014-Sep-25 20:33N 33°46' W 118°13'0 0.0
2014-Sep-25 19:34N 33°46' W 118°13'121038199.5
2014-Sep-25 19:32N 29°41' W 095°00'12101249.2
2014-Sep-25 18:34N 33°46' W 118°13'121038199.2
2014-Sep-25 18:32N 29°41' W 095°00'12101248.8
2014-Sep-25 17:34N 33°46' W 118°13'1209140406.8
2014-Sep-25 17:33N 29°42' W 095°01'12091219.9
2014-Sep-25 16:34N 33°46' W 118°13'1204361164.4
2014-Sep-25 16:33N 29°45' W 095°06'12041207.9
2014-Sep-25 15:34N 33°46' W 118°13'120227927.2
2014-Sep-25 15:31N 29°44' W 095°08'12021256.5
2014-Sep-25 14:34N 33°46' W 118°13'120228858.1
2014-Sep-25 14:31N 29°44' W 095°08'12021255.1
2014-Sep-25 13:34N 33°46' W 118°13'120227748.2
2014-Sep-25 13:31N 29°44' W 095°08'12021256.5
2014-Sep-25 12:34N 33°46' W 118°13'120228667.0
2014-Sep-25 12:31N 29°44' W 095°08'12021254.7
2014-Sep-25 11:34N 33°46' W 118°13'1202480967.9
2014-Sep-25 11:33N 29°44' W 095°08'12021202.1
2014-Sep-25 10:33N 33°46' W 118°13'0 0.0
2014-Sep-25 09:34N 33°46' W 118°13'0 0.0
2014-Sep-25 08:34N 33°46' W 118°13'0 0.0
2014-Sep-25 07:34N 33°46' W 118°13'0 0.0
2014-Sep-25 06:34N 33°46' W 118°13'0 0.0
2014-Sep-25 05:34N 33°46' W 118°13'1204117116.7
2014-Sep-25 05:33N 29°45' W 095°06'12041212.8
2014-Sep-25 04:33N 33°46' W 118°13'11994035.5
2014-Sep-25 04:16N 29°45' W 095°11'11991706.7
2014-Sep-25 03:33N 33°46' W 118°13'119912516.1
2014-Sep-25 03:28N 29°45' W 095°11'11991318.1
2014-Sep-25 02:33N 33°46' W 118°13'11996285.3
2014-Sep-25 02:22N 29°45' W 095°11'11991497.8
2014-Sep-25 01:34N 33°46' W 118°13'0 0.0
2014-Sep-25 00:33N 33°46' W 118°13'0 0.0
2014-Sep-24 23:33N 33°46' W 118°13'119912232.4
2014-Sep-24 23:27N 29°45' W 095°11'11991333.5
2014-Sep-24 22:34N 33°46' W 118°13'119924395.8
2014-Sep-24 22:31N 29°45' W 095°11'11991257.8
2014-Sep-24 21:33N 33°46' W 118°13'12002409.7
2014-Sep-24 21:03N 29°45' W 095°11'12002400.3
2014-Sep-24 20:34N 33°46' W 118°13'1202139580.3
2014-Sep-24 20:33N 29°44' W 095°09'12021209.0
2014-Sep-24 19:33N 33°46' W 118°13'120310912.2
2014-Sep-24 19:27N 29°45' W 095°07'12031353.4
2014-Sep-24 18:33N 33°46' W 118°13'12037508.0
2014-Sep-24 18:24N 29°45' W 095°07'12031432.1
2014-Sep-24 17:33N 33°46' W 118°13'120320056.2
2014-Sep-24 17:30N 29°45' W 095°07'12031284.4
2014-Sep-24 16:34N 33°46' W 118°13'120318835.5
2014-Sep-24 16:30N 29°45' W 095°07'12031282.5
2014-Sep-24 15:33N 33°46' W 118°13'12034613.6
2014-Sep-24 15:18N 29°45' W 095°07'12031628.0
2014-Sep-24 14:33N 33°46' W 118°13'12035692.6
2014-Sep-24 14:21N 29°45' W 095°07'12031525.4
2014-Sep-24 13:33N 33°46' W 118°13'12036998.8
2014-Sep-24 13:23N 29°45' W 095°07'12031448.4
2014-Sep-24 12:33N 33°46' W 118°13'1203541539.6
2014-Sep-24 12:33N 29°46' W 095°06'12031209.5
2014-Sep-24 11:33N 33°46' W 118°13'0 0.0
2014-Sep-24 10:33N 33°46' W 118°13'0 0.0
2014-Sep-24 09:33N 33°46' W 118°13'0 0.0
2014-Sep-24 08:33N 33°46' W 118°13'0 0.0
2014-Sep-24 07:33N 33°46' W 118°13'0 0.0
2014-Sep-24 06:33N 33°46' W 118°13'0 0.0
2014-Sep-24 05:33N 33°46' W 118°13'0 0.0
2014-Sep-24 04:33N 33°46' W 118°13'0 0.0
2014-Sep-24 03:33N 33°46' W 118°13'0 0.0
2014-Sep-24 02:33N 33°46' W 118°13'0 0.0
2014-Sep-24 01:33N 33°46' W 118°13'0 0.0
2014-Sep-24 00:33N 33°46' W 118°13'120353460.7
2014-Sep-24 00:32N 29°46' W 095°07'1 1.3
2014-Sep-23 23:33N 29°47' W 095°06'12034332138.5
2014-Sep-23 23:33N 33°46' W 118°13'0 0.0
2014-Sep-23 22:33N 33°46' W 118°13'120312778.6
2014-Sep-23 22:28N 29°47' W 095°06'12031328.4
2014-Sep-23 21:33N 33°46' W 118°13'120326576.3
2014-Sep-23 21:31N 29°47' W 095°06'12031263.7
2014-Sep-23 20:34N 33°46' W 118°13'120326096.0
2014-Sep-23 20:31N 29°47' W 095°06'12031258.2
2014-Sep-23 19:33N 33°46' W 118°13'12036197.4
2014-Sep-23 19:22N 29°47' W 095°06'12031488.1
2014-Sep-23 18:33N 33°46' W 118°13'12038510.7
2014-Sep-23 18:25N 29°47' W 095°06'12031406.0
2014-Sep-23 17:33N 33°46' W 118°13'120327244.9
2014-Sep-23 17:31N 29°47' W 095°06'12031258.9
2014-Sep-23 16:33N 33°46' W 118°13'120312703.7
2014-Sep-23 16:28N 29°47' W 095°06'12031325.6
2014-Sep-23 15:33N 33°46' W 118°13'12038411.5
2014-Sep-23 15:25N 29°47' W 095°06'12031398.8
2014-Sep-23 14:33N 33°46' W 118°13'120335801.5
2014-Sep-23 14:31N 29°47' W 095°06'12031252.7
2014-Sep-23 13:33N 33°46' W 118°13'120331165.4
2014-Sep-23 13:31N 29°47' W 095°06'12031251.7
2014-Sep-23 12:33N 33°46' W 118°13'0 0.0
2014-Sep-23 11:33N 33°46' W 118°13'0 0.0
2014-Sep-23 10:33N 33°46' W 118°13'0 0.0
2014-Sep-23 09:33N 33°46' W 118°13'0 0.0
2014-Sep-23 08:33N 33°46' W 118°13'0 0.0
2014-Sep-23 07:33N 33°46' W 118°13'0 0.0
2014-Sep-23 06:33N 33°46' W 118°13'0 0.0
2014-Sep-23 05:33N 33°46' W 118°13'12038595.2
2014-Sep-23 05:25N 29°47' W 095°06'12031398.3
2014-Sep-23 04:33N 33°46' W 118°13'120330942.9
2014-Sep-23 04:31N 29°47' W 095°06'12031252.0
2014-Sep-23 03:33N 33°46' W 118°13'120330507.1
2014-Sep-23 03:31N 29°47' W 095°06'12031252.7
2014-Sep-23 02:33N 33°46' W 118°13'120331165.5
2014-Sep-23 02:31N 29°47' W 095°06'12031252.4
2014-Sep-23 01:33N 33°46' W 118°13'120330507.0
2014-Sep-23 01:31N 29°47' W 095°06'12031252.4
2014-Sep-23 00:33N 33°46' W 118°13'120329469.4
2014-Sep-23 00:31N 29°47' W 095°06'12031247.3
2014-Sep-22 23:33N 33°46' W 118°13'120334935.5
2014-Sep-22 23:31N 29°47' W 095°06'12031253.5
2014-Sep-22 22:33N 33°46' W 118°13'120313288.4
2014-Sep-22 22:28N 29°47' W 095°06'12031323.2
2014-Sep-22 21:33N 33°46' W 118°13'120329875.9
2014-Sep-22 21:31N 29°47' W 095°06'12031253.8
2014-Sep-22 20:33N 33°46' W 118°13'120330293.7
2014-Sep-22 20:31N 29°47' W 095°06'12031253.1
2014-Sep-22 19:33N 33°46' W 118°13'120329875.9
2014-Sep-22 19:31N 29°47' W 095°06'12031253.8
2014-Sep-22 18:33N 33°46' W 118°13'120330293.7
2014-Sep-22 18:31N 29°47' W 095°06'12031253.1
2014-Sep-22 17:33N 33°46' W 118°13'120329073.7
2014-Sep-22 17:31N 29°47' W 095°06'12031255.3
2014-Sep-22 16:33N 33°46' W 118°13'120329270.3
2014-Sep-22 16:31N 29°47' W 095°06'12031254.9
2014-Sep-22 15:33N 33°46' W 118°13'120330083.3
2014-Sep-22 15:31N 29°47' W 095°06'12031253.5
2014-Sep-22 14:33N 33°46' W 118°13'120330083.4
2014-Sep-22 14:31N 29°47' W 095°06'12031242.3
2014-Sep-22 13:33N 33°46' W 118°13'12039062.8
2014-Sep-22 13:25N 29°47' W 095°06'12031397.0
2014-Sep-22 12:33N 33°46' W 118°13'120331620.4
2014-Sep-22 12:31N 29°47' W 095°06'12031254.2
2014-Sep-22 11:33N 33°46' W 118°13'120329270.3
2014-Sep-22 11:31N 29°47' W 095°06'12031255.3
2014-Sep-22 10:33N 33°46' W 118°13'0 0.0
2014-Sep-22 09:33N 33°46' W 118°13'12034990.8
2014-Sep-22 09:19N 29°47' W 095°06'12031585.7
2014-Sep-22 08:33N 33°46' W 118°13'12033533.4
2014-Sep-22 08:13N 29°47' W 095°06'12031824.8
2014-Sep-22 07:33N 33°46' W 118°13'12038510.8
2014-Sep-22 07:25N 29°47' W 095°06'12031401.9
2014-Sep-22 06:33N 33°46' W 118°13'120313048.2
2014-Sep-22 06:28N 29°47' W 095°06'12031325.2
2014-Sep-22 05:33N 33°46' W 118°13'120329270.3
2014-Sep-22 05:31N 29°47' W 095°06'12031254.9
2014-Sep-22 04:33N 33°46' W 118°13'120313167.2
2014-Sep-22 04:28N 29°47' W 095°06'12031324.0
2014-Sep-22 03:33N 33°46' W 118°13'120329469.4
2014-Sep-22 03:31N 29°47' W 095°06'12031254.6
2014-Sep-22 02:33N 33°46' W 118°13'120330083.3
2014-Sep-22 02:31N 29°47' W 095°06'12031253.5
2014-Sep-22 01:33N 33°46' W 118°13'120313329.2
2014-Sep-22 01:28N 29°47' W 095°06'12031323.2
2014-Sep-22 00:33N 33°46' W 118°13'120313048.2
2014-Sep-22 00:28N 29°47' W 095°06'12031325.6
2014-Sep-21 23:33N 33°46' W 118°13'120329469.4
2014-Sep-21 23:31N 29°47' W 095°06'12031254.2
2014-Sep-21 22:33N 33°46' W 118°13'120328688.6
2014-Sep-21 22:31N 29°47' W 095°06'12031256.4
2014-Sep-21 21:33N 33°46' W 118°13'  

Dump ship's entire track history